createdAt,value
2023-05-14T00:00:29.893Z,71.66
2023-05-14T00:03:59.981Z,71.14
2023-05-14T00:07:33.189Z,72.24
2023-05-14T00:16:27.291Z,74.29
2023-05-14T00:19:51.765Z,76.35
2023-05-14T00:23:11.625Z,76.16
2023-05-14T00:26:16.889Z,75.19
2023-05-14T00:30:02.854Z,74.10
2023-05-14T00:33:08.459Z,74.47
2023-05-14T00:36:40.767Z,74.30
2023-05-14T00:40:01.317Z,74.48
2023-05-14T00:43:06.693Z,74.31
2023-05-14T00:46:12.660Z,73.73
2023-05-14T00:49:18.999Z,73.15
2023-05-14T00:52:46.191Z,72.97
2023-05-14T00:56:03.973Z,72.57
2023-05-14T00:59:09.728Z,72.24
2023-05-14T01:02:27.937Z,72.50
2023-05-14T01:06:26.559Z,72.83
2023-05-14T01:09:46.333Z,72.98
2023-05-14T01:13:09.616Z,74.45
2023-05-14T01:16:16.968Z,75.44
2023-05-14T01:19:48.327Z,74.91
2023-05-14T01:22:56.862Z,75.39
2023-05-14T01:26:04.516Z,75.23
2023-05-14T01:29:22.039Z,74.86
2023-05-14T01:32:34.741Z,75.32
2023-05-14T01:35:40.736Z,75.30
2023-05-14T01:38:49.882Z,74.08
2023-05-14T01:41:59.612Z,74.22
2023-05-14T01:45:07.560Z,74.40
2023-05-14T01:48:17.216Z,74.11
2023-05-14T01:51:37.146Z,73.67
2023-05-14T01:54:44.640Z,74.01
2023-05-14T01:57:57.207Z,74.40
2023-05-14T02:01:23.099Z,74.24
2023-05-14T02:04:30.325Z,73.90
2023-05-14T02:07:38.910Z,72.94
2023-05-14T02:11:18.833Z,73.23
2023-05-14T02:14:29.830Z,73.15
2023-05-14T02:17:57.270Z,73.09
2023-05-14T02:21:26.155Z,73.13
2023-05-14T02:24:54.326Z,73.56
2023-05-14T02:28:26.466Z,75.06
2023-05-14T02:31:39.648Z,75.05
2023-05-14T02:34:47.486Z,75.43
2023-05-14T02:37:52.263Z,75.33
2023-05-14T02:40:55.053Z,75.18
2023-05-14T02:44:05.776Z,74.94
2023-05-14T02:47:10.861Z,74.44
2023-05-14T02:50:13.874Z,74.48
2023-05-14T02:53:16.803Z,74.11
2023-05-14T02:56:35.629Z,74.63
2023-05-14T02:59:45.561Z,75.03
2023-05-14T03:03:17.062Z,74.85
2023-05-14T03:06:40.711Z,75.71
2023-05-14T03:10:12.876Z,75.72
2023-05-14T03:13:28.636Z,75.55
2023-05-14T03:16:33.566Z,75.48
2023-05-14T03:19:44.695Z,75.66
2023-05-14T03:27:53.243Z,75.04
2023-05-14T03:31:02.367Z,74.70
2023-05-14T03:34:06.395Z,74.07
2023-05-14T03:37:24.654Z,73.48
2023-05-14T03:40:36.601Z,72.97
2023-05-14T03:43:43.519Z,72.44
2023-05-14T03:46:50.935Z,70.57
2023-05-14T03:49:58.568Z,70.56
2023-05-14T03:53:17.225Z,70.28
2023-05-14T03:56:26.355Z,69.30
2023-05-14T03:59:36.206Z,68.76
2023-05-14T04:02:41.402Z,67.20
2023-05-14T04:05:46.491Z,65.16
2023-05-14T04:08:54.244Z,61.46
2023-05-14T04:12:01.286Z,58.58
2023-05-14T04:15:05.854Z,55.76
2023-05-14T04:18:20.277Z,50.36
2023-05-14T04:21:25.248Z,46.93
2023-05-14T04:24:36.553Z,44.76
2023-05-14T04:27:40.770Z,43.06
2023-05-14T04:30:53.528Z,41.40
2023-05-14T04:33:57.280Z,38.39
2023-05-14T04:37:00.086Z,39.16
2023-05-14T04:40:06.196Z,36.81
2023-05-14T04:43:09.474Z,34.54
2023-05-14T04:46:28.959Z,35.49
2023-05-14T04:49:33.839Z,37.53
2023-05-14T04:53:01.842Z,39.86
2023-05-14T04:56:08.452Z,42.04
2023-05-14T04:59:13.807Z,42.85
2023-05-14T05:02:18.042Z,44.71
2023-05-14T05:05:25.042Z,45.47
2023-05-14T05:08:29.488Z,46.62
2023-05-14T05:11:32.419Z,47.53
2023-05-14T05:14:35.307Z,48.74
2023-05-14T05:17:40.588Z,48.54
2023-05-14T05:20:47.494Z,48.71
2023-05-14T05:23:51.060Z,49.23
2023-05-14T05:26:55.835Z,49.54
2023-05-14T05:29:59.137Z,49.14
2023-05-14T05:33:02.121Z,49.19
2023-05-14T05:36:10.068Z,49.58
2023-05-14T05:39:35.000Z,49.69
2023-05-14T05:42:48.802Z,50.13
2023-05-14T05:46:12.060Z,49.57
2023-05-14T05:49:15.018Z,49.81
2023-05-14T05:52:17.803Z,50.54
2023-05-14T05:55:20.802Z,51.20
2023-05-14T05:58:24.199Z,49.42
2023-05-14T06:01:27.384Z,49.46
2023-05-14T06:04:38.828Z,47.81
2023-05-14T06:07:49.912Z,47.17
2023-05-14T06:10:55.787Z,47.28
2023-05-14T06:13:58.661Z,47.56
2023-05-14T06:17:03.786Z,47.75
2023-05-14T06:20:10.074Z,47.06
2023-05-14T06:23:35.233Z,45.89
2023-05-14T06:26:39.972Z,46.63
2023-05-14T06:30:01.201Z,46.65
2023-05-14T06:33:40.720Z,47.29
2023-05-14T06:37:08.136Z,47.37
2023-05-14T06:40:24.800Z,45.90
2023-05-14T06:43:41.092Z,45.94
2023-05-14T06:46:48.774Z,46.84
2023-05-14T06:50:01.198Z,45.94
2023-05-14T06:53:04.892Z,47.06
2023-05-14T06:56:08.053Z,45.86
2023-05-14T06:59:40.513Z,44.89
2023-05-14T07:02:45.742Z,45.16
2023-05-14T07:05:56.160Z,45.66
2023-05-14T07:09:01.999Z,44.76
2023-05-14T07:12:10.028Z,45.28
2023-05-14T07:15:21.253Z,43.57
2023-05-14T07:18:26.064Z,45.72
2023-05-14T07:21:29.584Z,46.22
2023-05-14T07:24:32.483Z,46.07
2023-05-14T07:27:44.604Z,46.48
2023-05-14T07:31:06.003Z,46.57
2023-05-14T07:34:11.757Z,46.89
2023-05-14T07:37:14.794Z,46.59
2023-05-14T07:40:48.612Z,46.17
2023-05-14T07:44:11.552Z,47.13
2023-05-14T07:47:18.297Z,48.79
2023-05-14T07:50:27.619Z,46.75
2023-05-14T07:53:50.688Z,47.43
2023-05-14T07:56:53.732Z,47.57
2023-05-14T07:59:57.135Z,47.66
2023-05-14T08:03:00.178Z,47.49
2023-05-14T08:06:07.228Z,47.93
2023-05-14T08:09:17.600Z,47.40
2023-05-14T08:12:25.642Z,47.49
2023-05-14T08:16:11.565Z,47.19
2023-05-14T08:19:15.193Z,47.81
2023-05-14T08:22:20.919Z,48.08
2023-05-14T08:25:25.797Z,48.26
2023-05-14T08:28:28.734Z,47.47
2023-05-14T08:31:58.258Z,48.82
2023-05-14T08:35:32.273Z,48.50
2023-05-14T08:38:58.695Z,48.85
2023-05-14T08:42:21.952Z,48.81
2023-05-14T08:45:34.169Z,47.96
2023-05-14T08:48:49.220Z,48.73
2023-05-14T08:51:54.739Z,47.47
2023-05-14T08:55:00.749Z,46.82
2023-05-14T08:58:07.464Z,47.01
2023-05-14T09:01:10.318Z,46.74
2023-05-14T09:04:16.709Z,47.21
2023-05-14T09:07:55.023Z,47.12
2023-05-14T09:11:02.044Z,47.36
2023-05-14T09:14:33.319Z,47.81
2023-05-14T09:17:42.340Z,48.75
2023-05-14T09:21:08.191Z,48.07
2023-05-14T09:25:03.522Z,47.63
2023-05-14T09:28:17.632Z,47.83
2023-05-14T09:31:27.515Z,48.19
2023-05-14T09:34:41.670Z,47.87
2023-05-14T09:37:47.156Z,47.24
2023-05-14T09:40:51.950Z,46.86
2023-05-14T09:43:56.923Z,47.02
2023-05-14T09:47:00.157Z,46.79
2023-05-14T09:50:09.773Z,46.82
2023-05-14T09:53:18.610Z,46.88
2023-05-14T09:56:26.931Z,46.32
2023-05-14T09:59:36.749Z,47.24
2023-05-14T10:02:43.878Z,46.81
2023-05-14T10:05:51.494Z,45.79
2023-05-14T10:08:57.357Z,46.03
2023-05-14T10:12:01.456Z,46.64
2023-05-14T10:15:43.715Z,45.66
2023-05-14T10:19:05.161Z,44.41
2023-05-14T10:22:22.385Z,43.53
2023-05-14T10:25:31.563Z,42.97
2023-05-14T10:28:36.772Z,43.03
2023-05-14T10:31:54.266Z,42.77
2023-05-14T10:35:25.495Z,42.95
2023-05-14T10:38:35.224Z,44.11
2023-05-14T10:41:43.698Z,42.92
2023-05-14T10:44:57.781Z,42.50
2023-05-14T10:48:16.697Z,43.64
2023-05-14T10:51:28.712Z,43.19
2023-05-14T10:54:35.986Z,44.90
2023-05-14T10:57:46.347Z,43.57
2023-05-14T11:01:15.408Z,43.19
2023-05-14T11:04:42.571Z,44.20
2023-05-14T11:07:50.647Z,44.80
2023-05-14T11:10:56.541Z,45.33
2023-05-14T11:14:01.358Z,45.40
2023-05-14T11:17:10.660Z,44.27
2023-05-14T11:20:16.883Z,44.30
2023-05-14T11:23:25.372Z,44.87
2023-05-14T11:26:32.472Z,44.99
2023-05-14T11:29:46.298Z,44.81
2023-05-14T11:33:04.624Z,45.68
2023-05-14T11:36:17.752Z,45.33
2023-05-14T11:39:22.433Z,45.57
2023-05-14T11:42:27.492Z,45.09
2023-05-14T11:45:33.153Z,45.05
2023-05-14T11:48:36.508Z,45.40
2023-05-14T11:51:41.044Z,45.13
2023-05-14T11:54:49.741Z,44.78
2023-05-14T11:57:57.227Z,44.01
2023-05-14T12:01:04.387Z,42.84
2023-05-14T12:04:14.472Z,43.40
2023-05-14T12:07:29.495Z,42.18
2023-05-14T12:10:42.194Z,42.91
2023-05-14T12:13:52.907Z,42.42
2023-05-14T12:16:59.549Z,42.71
2023-05-14T12:20:04.254Z,42.83
2023-05-14T12:23:12.391Z,43.24
2023-05-14T12:26:16.702Z,43.04
2023-05-14T12:29:28.159Z,43.23
2023-05-14T12:32:36.873Z,43.47
2023-05-14T12:35:43.097Z,43.44
2023-05-14T12:39:04.378Z,43.56
2023-05-14T12:42:40.800Z,43.10
2023-05-14T12:45:56.172Z,42.53
2023-05-14T12:49:26.643Z,42.65
2023-05-14T12:52:53.091Z,42.29
2023-05-14T12:56:01.414Z,42.43
2023-05-14T12:59:05.938Z,42.82
2023-05-14T13:02:10.834Z,43.44
2023-05-14T13:05:33.888Z,43.21
2023-05-14T13:08:40.547Z,43.58
2023-05-14T13:11:45.353Z,43.78
2023-05-14T13:14:50.167Z,43.67
2023-05-14T13:17:56.630Z,43.80
2023-05-14T13:21:05.831Z,43.98
2023-05-14T13:24:20.957Z,44.18
2023-05-14T13:27:28.509Z,44.09
2023-05-14T13:30:39.053Z,44.26
2023-05-14T13:33:54.834Z,44.05
2023-05-14T13:37:00.926Z,44.02
2023-05-14T13:40:28.439Z,43.97
2023-05-14T13:43:47.111Z,43.82
2023-05-14T13:47:09.708Z,43.57
2023-05-14T13:50:23.045Z,44.49
2023-05-14T13:56:59.858Z,44.92
2023-05-14T14:00:08.945Z,45.90
2023-05-14T14:03:13.713Z,45.63
2023-05-14T14:06:35.444Z,46.08
2023-05-14T14:10:02.504Z,46.66
2023-05-14T14:13:19.040Z,47.05
2023-05-14T14:16:28.226Z,47.55
2023-05-14T14:19:40.821Z,47.71
2023-05-14T14:23:08.121Z,47.81
2023-05-14T14:26:17.857Z,48.15
2023-05-14T14:29:51.321Z,49.06
2023-05-14T14:33:07.430Z,49.63
2023-05-14T14:36:22.031Z,49.63
2023-05-14T14:39:29.168Z,49.64
2023-05-14T14:42:38.870Z,50.09
2023-05-14T14:45:49.473Z,50.19
2023-05-14T14:49:02.369Z,50.82
2023-05-14T14:52:29.828Z,51.70
2023-05-14T14:55:55.630Z,52.01
2023-05-14T14:59:17.636Z,52.63
2023-05-14T15:02:28.700Z,52.62
2023-05-14T15:05:40.521Z,52.58
2023-05-14T15:09:01.100Z,54.51
2023-05-14T15:12:25.157Z,54.57
2023-05-14T15:15:40.539Z,55.75
2023-05-14T15:18:48.323Z,55.53
2023-05-14T15:22:00.548Z,58.19
2023-05-14T15:25:58.871Z,56.18
2023-05-14T15:29:09.365Z,56.93
2023-05-14T15:32:19.656Z,63.01
2023-05-14T15:35:41.608Z,63.27
2023-05-14T15:38:52.136Z,62.86
2023-05-14T15:42:16.978Z,62.61
2023-05-14T15:45:19.860Z,63.84
2023-05-14T15:48:30.580Z,66.38
2023-05-14T15:51:42.170Z,66.71
2023-05-14T15:54:48.393Z,66.41
2023-05-14T15:57:56.401Z,66.07
2023-05-14T16:01:09.496Z,64.90
2023-05-14T16:04:17.932Z,64.82
2023-05-14T16:07:36.828Z,69.54
2023-05-14T16:10:55.749Z,68.58
2023-05-14T16:14:04.722Z,68.73
2023-05-14T16:17:32.439Z,69.79
2023-05-14T16:20:43.556Z,68.06
2023-05-14T16:24:10.674Z,69.38
2023-05-14T16:27:27.522Z,75.08
2023-05-14T16:30:32.205Z,70.77
2023-05-14T16:33:42.086Z,69.51
2023-05-14T16:37:00.934Z,69.56
2023-05-14T16:40:03.962Z,70.03
2023-05-14T16:43:07.006Z,69.83
2023-05-14T16:46:10.498Z,75.58
2023-05-14T16:49:15.302Z,75.64
2023-05-14T16:52:18.614Z,71.30
2023-05-14T16:55:22.019Z,75.39
2023-05-14T16:58:28.651Z,75.41
2023-05-14T17:01:40.787Z,74.72
2023-05-14T17:04:46.767Z,77.47
2023-05-14T17:10:53.749Z,75.09
2023-05-14T17:14:31.778Z,75.52
2023-05-14T17:18:09.231Z,75.47
2023-05-14T17:21:12.222Z,77.56
2023-05-14T17:24:30.375Z,75.72
2023-05-14T17:28:15.913Z,78.05
2023-05-14T17:31:59.169Z,78.94
2023-05-14T17:39:26.193Z,77.97
2023-05-14T18:23:36.892Z,85.17
2023-05-14T18:27:04.080Z,84.93
2023-05-14T18:41:06.673Z,87.88
2023-05-14T18:44:09.555Z,87.75
2023-05-14T18:47:13.620Z,86.86
2023-05-14T18:50:16.530Z,86.84
2023-05-14T18:53:19.515Z,86.29
2023-05-14T18:56:23.260Z,86.72
2023-05-14T18:59:27.834Z,84.49
2023-05-14T19:02:31.032Z,84.26
2023-05-14T19:05:45.649Z,84.45
2023-05-14T19:08:48.571Z,84.41
2023-05-14T19:11:51.597Z,83.43
2023-05-14T19:14:54.624Z,83.71
2023-05-14T19:17:57.819Z,84.01
2023-05-14T19:21:01.365Z,84.01
2023-05-14T19:24:12.190Z,84.18
2023-05-14T19:27:17.427Z,84.18
2023-05-14T19:30:23.425Z,84.33
2023-05-14T19:33:27.777Z,84.72
2023-05-14T19:36:36.236Z,86.54
2023-05-14T19:39:39.314Z,85.74
2023-05-14T19:42:44.048Z,86.11
2023-05-14T19:45:48.730Z,86.55
2023-05-14T19:48:53.535Z,85.70
2023-05-14T19:51:56.317Z,85.71
2023-05-14T19:55:00.388Z,86.06
2023-05-14T19:58:11.831Z,86.88
2023-05-14T20:01:36.707Z,87.08
2023-05-14T20:05:11.981Z,86.84
2023-05-14T20:08:16.807Z,87.30
2023-05-14T20:11:19.730Z,88.22
2023-05-14T20:14:22.573Z,88.66
2023-05-14T20:17:25.579Z,88.89
2023-05-14T20:20:31.143Z,89.17
2023-05-14T20:23:38.490Z,89.28
2023-05-14T20:26:43.209Z,89.68
2023-05-14T20:29:46.854Z,90.30
2023-05-14T20:32:50.338Z,91.51
2023-05-14T20:36:21.008Z,92.44
2023-05-14T20:39:25.306Z,93.14
2023-05-14T20:42:28.964Z,93.61
2023-05-14T20:45:32.008Z,93.85
2023-05-14T20:48:34.955Z,94.16
2023-05-14T20:51:40.103Z,94.41
2023-05-14T20:54:44.170Z,94.64
2023-05-14T20:57:47.121Z,94.62
2023-05-14T21:00:50.024Z,94.65
2023-05-14T21:03:53.155Z,94.72
2023-05-14T21:06:58.081Z,94.82
2023-05-14T21:10:03.983Z,94.79
2023-05-14T21:13:10.142Z,94.78
2023-05-14T21:16:13.127Z,94.75
2023-05-14T21:19:16.259Z,94.69
2023-05-14T21:22:19.205Z,94.61
2023-05-14T21:25:23.304Z,94.55
2023-05-14T21:28:27.319Z,94.49
2023-05-14T21:31:31.000Z,94.42
2023-05-14T21:34:39.899Z,94.35
2023-05-14T21:37:43.864Z,94.28
2023-05-14T21:40:48.923Z,94.21
2023-05-14T21:43:51.892Z,94.13
2023-05-14T21:46:54.926Z,94.13
2023-05-14T21:49:59.818Z,94.08
2023-05-14T21:53:04.617Z,94.01
2023-05-14T21:56:09.303Z,93.95
2023-05-14T21:59:12.293Z,93.86
2023-05-14T22:02:15.152Z,93.83
2023-05-14T22:05:22.686Z,93.84
2023-05-14T22:08:27.790Z,93.91
2023-05-14T22:11:30.612Z,93.82
2023-05-14T22:14:35.521Z,93.68
2023-05-14T22:17:39.031Z,93.55
2023-05-14T22:20:43.022Z,93.49
2023-05-14T22:23:49.896Z,93.48
2023-05-14T22:26:54.800Z,93.38
2023-05-14T22:30:04.040Z,93.33
2023-05-14T22:33:14.237Z,93.26
2023-05-14T22:36:26.021Z,93.45
2023-05-14T22:39:32.842Z,93.50
2023-05-14T22:45:44.228Z,93.61
2023-05-14T22:49:16.049Z,93.83
2023-05-14T22:52:34.879Z,93.91
2023-05-14T22:55:39.001Z,93.91
2023-05-14T22:58:41.940Z,93.91
2023-05-14T23:01:45.226Z,93.86
2023-05-14T23:04:48.375Z,93.77
2023-05-14T23:08:02.820Z,93.60
2023-05-14T23:11:06.676Z,93.56
2023-05-14T23:14:09.558Z,93.76
2023-05-14T23:17:14.474Z,93.80
2023-05-14T23:20:17.753Z,93.76
2023-05-14T23:23:26.094Z,93.70
2023-05-14T23:26:36.382Z,93.68
2023-05-14T23:29:39.205Z,93.68
2023-05-14T23:32:44.052Z,93.74
2023-05-14T23:35:58.841Z,93.92
2023-05-14T23:39:02.499Z,93.97
2023-05-14T23:42:05.744Z,93.98
2023-05-14T23:45:16.409Z,93.92
2023-05-14T23:48:22.828Z,93.87
2023-05-14T23:51:38.294Z,93.94
2023-05-14T23:54:43.045Z,93.96
2023-05-14T23:57:48.752Z,93.93
